sensor_id;sensor_type;location;lat;lon;timestamp;temperature;humidity
54846;DHT22;53889;50.084;8.646;2022-12-29T00:01:39;10.60;99.90
54846;DHT22;53889;50.084;8.646;2022-12-29T00:04:12;10.70;99.90
54846;DHT22;53889;50.084;8.646;2022-12-29T00:06:39;10.70;99.90
54846;DHT22;53889;50.084;8.646;2022-12-29T00:09:06;10.70;99.90
54846;DHT22;53889;50.084;8.646;2022-12-29T00:11:33;10.70;99.90
54846;DHT22;53889;50.084;8.646;2022-12-29T00:14:00;10.70;99.90
54846;DHT22;53889;50.084;8.646;2022-12-29T00:16:45;10.70;99.90
54846;DHT22;53889;50.084;8.646;2022-12-29T00:19:13;10.60;99.90
54846;DHT22;53889;50.084;8.646;2022-12-29T00:21:54;10.70;99.90
54846;DHT22;53889;50.084;8.646;2022-12-29T00:24:46;10.70;99.90
54846;DHT22;53889;50.084;8.646;2022-12-29T00:27:32;10.60;99.90
54846;DHT22;53889;50.084;8.646;2022-12-29T00:30:18;10.30;99.90
54846;DHT22;53889;50.084;8.646;2022-12-29T00:33:09;10.20;99.90
54846;DHT22;53889;50.084;8.646;2022-12-29T00:35:58;10.20;99.90
54846;DHT22;53889;50.084;8.646;2022-12-29T00:38:29;10.20;99.90
54846;DHT22;53889;50.084;8.646;2022-12-29T00:41:15;10.20;99.90
54846;DHT22;53889;50.084;8.646;2022-12-29T00:44:00;10.20;99.90
54846;DHT22;53889;50.084;8.646;2022-12-29T00:46:33;10.30;99.90
54846;DHT22;53889;50.084;8.646;2022-12-29T00:49:00;10.20;99.90
54846;DHT22;53889;50.084;8.646;2022-12-29T00:51:46;10.20;99.90
54846;DHT22;53889;50.084;8.646;2022-12-29T00:54:13;10.30;99.90
54846;DHT22;53889;50.084;8.646;2022-12-29T00:56:40;10.30;99.90
54846;DHT22;53889;50.084;8.646;2022-12-29T00:59:09;10.30;99.90
54846;DHT22;53889;50.084;8.646;2022-12-29T01:01:37;10.20;99.90
54846;DHT22;53889;50.084;8.646;2022-12-29T01:04:04;10.20;99.90
54846;DHT22;53889;50.084;8.646;2022-12-29T01:06:32;10.20;99.90
54846;DHT22;53889;50.084;8.646;2022-12-29T01:09:00;10.20;99.90
54846;DHT22;53889;50.084;8.646;2022-12-29T01:11:44;10.20;99.90
54846;DHT22;53889;50.084;8.646;2022-12-29T01:14:11;10.30;99.90
54846;DHT22;53889;50.084;8.646;2022-12-29T01:16:38;10.30;99.90
54846;DHT22;53889;50.084;8.646;2022-12-29T01:19:04;10.30;99.90
54846;DHT22;53889;50.084;8.646;2022-12-29T01:21:32;10.30;99.90
54846;DHT22;53889;50.084;8.646;2022-12-29T01:24:00;10.40;99.90
54846;DHT22;53889;50.084;8.646;2022-12-29T01:26:27;10.40;99.90
54846;DHT22;53889;50.084;8.646;2022-12-29T01:28:54;10.40;99.90
54846;DHT22;53889;50.084;8.646;2022-12-29T01:31:21;10.50;99.90
54846;DHT22;53889;50.084;8.646;2022-12-29T01:33:48;10.50;99.90
54846;DHT22;53889;50.084;8.646;2022-12-29T01:36:16;10.50;99.90
54846;DHT22;53889;50.084;8.646;2022-12-29T01:38:43;10.50;99.90
54846;DHT22;53889;50.084;8.646;2022-12-29T01:41:13;10.50;99.90
54846;DHT22;53889;50.084;8.646;2022-12-29T01:43:42;10.50;99.90
54846;DHT22;53889;50.084;8.646;2022-12-29T01:46:19;10.50;99.90
54846;DHT22;53889;50.084;8.646;2022-12-29T01:48:48;10.50;99.90
54846;DHT22;53889;50.084;8.646;2022-12-29T01:51:16;10.50;99.90
54846;DHT22;53889;50.084;8.646;2022-12-29T01:53:44;10.90;99.90
54846;DHT22;53889;50.084;8.646;2022-12-29T01:56:15;10.50;99.90
54846;DHT22;53889;50.084;8.646;2022-12-29T01:58:46;10.50;99.90
54846;DHT22;53889;50.084;8.646;2022-12-29T02:01:13;10.50;99.90
54846;DHT22;53889;50.084;8.646;2022-12-29T02:03:41;10.50;99.90
54846;DHT22;53889;50.084;8.646;2022-12-29T02:06:10;10.50;99.90
54846;DHT22;53889;50.084;8.646;2022-12-29T02:08:39;10.50;99.90
54846;DHT22;53889;50.084;8.646;2022-12-29T02:11:07;10.60;99.90
54846;DHT22;53889;50.084;8.646;2022-12-29T02:13:35;10.60;99.90
54846;DHT22;53889;50.084;8.646;2022-12-29T02:16:09;10.60;99.90
54846;DHT22;53889;50.084;8.646;2022-12-29T02:18:47;10.60;99.90
54846;DHT22;53889;50.084;8.646;2022-12-29T02:21:52;10.60;99.90
54846;DHT22;53889;50.084;8.646;2022-12-29T02:24:44;10.60;99.90
54846;DHT22;53889;50.084;8.646;2022-12-29T02:27:46;10.70;99.90
54846;DHT22;53889;50.084;8.646;2022-12-29T02:33:19;10.70;99.90
54846;DHT22;53889;50.084;8.646;2022-12-29T02:35:54;10.70;99.90
54846;DHT22;53889;50.084;8.646;2022-12-29T02:38:29;10.70;99.90
54846;DHT22;53889;50.084;8.646;2022-12-29T02:41:02;10.80;99.90
54846;DHT22;53889;50.084;8.646;2022-12-29T02:43:35;10.80;99.90
54846;DHT22;53889;50.084;8.646;2022-12-29T02:46:10;10.80;99.90
54846;DHT22;53889;50.084;8.646;2022-12-29T02:48:43;10.70;99.90
54846;DHT22;53889;50.084;8.646;2022-12-29T02:51:20;10.70;99.90
54846;DHT22;53889;50.084;8.646;2022-12-29T02:53:50;10.70;99.90
54846;DHT22;53889;50.084;8.646;2022-12-29T02:56:36;10.60;99.90
54846;DHT22;53889;50.084;8.646;2022-12-29T02:59:03;10.60;99.90
54846;DHT22;53889;50.084;8.646;2022-12-29T03:01:41;10.70;99.90
54846;DHT22;53889;50.084;8.646;2022-12-29T03:04:39;10.70;99.90
54846;DHT22;53889;50.084;8.646;2022-12-29T03:07:14;10.80;99.90
54846;DHT22;53889;50.084;8.646;2022-12-29T03:09:51;10.90;99.90
54846;DHT22;53889;50.084;8.646;2022-12-29T03:12:25;10.90;99.90
54846;DHT22;53889;50.084;8.646;2022-12-29T03:15:18;10.90;99.90
54846;DHT22;53889;50.084;8.646;2022-12-29T03:18:06;10.90;99.90
54846;DHT22;53889;50.084;8.646;2022-12-29T03:20:41;11.00;99.90
54846;DHT22;53889;50.084;8.646;2022-12-29T03:23:11;11.00;99.90
54846;DHT22;53889;50.084;8.646;2022-12-29T03:25:43;11.00;99.90
54846;DHT22;53889;50.084;8.646;2022-12-29T03:28:13;11.10;99.90
54846;DHT22;53889;50.084;8.646;2022-12-29T03:30:46;11.10;99.90
54846;DHT22;53889;50.084;8.646;2022-12-29T03:33:18;11.10;99.90
54846;DHT22;53889;50.084;8.646;2022-12-29T03:35:49;11.10;99.90
54846;DHT22;53889;50.084;8.646;2022-12-29T03:38:21;11.10;99.90
54846;DHT22;53889;50.084;8.646;2022-12-29T03:40:55;11.10;99.90
54846;DHT22;53889;50.084;8.646;2022-12-29T03:43:24;11.10;99.90
54846;DHT22;53889;50.084;8.646;2022-12-29T03:45:51;11.10;99.90
54846;DHT22;53889;50.084;8.646;2022-12-29T03:48:18;11.20;99.90
54846;DHT22;53889;50.084;8.646;2022-12-29T03:50:46;11.20;99.90
54846;DHT22;53889;50.084;8.646;2022-12-29T03:53:14;11.20;99.90
54846;DHT22;53889;50.084;8.646;2022-12-29T03:55:41;11.20;99.90
54846;DHT22;53889;50.084;8.646;2022-12-29T03:58:09;11.30;99.90
54846;DHT22;53889;50.084;8.646;2022-12-29T04:00:53;11.30;99.90
54846;DHT22;53889;50.084;8.646;2022-12-29T04:03:19;11.30;99.90
54846;DHT22;53889;50.084;8.646;2022-12-29T04:05:46;10.90;99.90
54846;DHT22;53889;50.084;8.646;2022-12-29T04:08:14;11.30;99.90
54846;DHT22;53889;50.084;8.646;2022-12-29T04:10:41;11.30;99.90
54846;DHT22;53889;50.084;8.646;2022-12-29T04:13:08;11.40;99.90
54846;DHT22;53889;50.084;8.646;2022-12-29T04:15:35;11.40;99.90
54846;DHT22;53889;50.084;8.646;2022-12-29T04:18:02;11.40;99.90
54846;DHT22;53889;50.084;8.646;2022-12-29T04:20:29;11.50;99.90
54846;DHT22;53889;50.084;8.646;2022-12-29T04:23:15;11.50;99.90
54846;DHT22;53889;50.084;8.646;2022-12-29T04:25:45;11.50;99.90
54846;DHT22;53889;50.084;8.646;2022-12-29T04:28:12;11.60;99.90
54846;DHT22;53889;50.084;8.646;2022-12-29T04:30:58;11.50;99.90
54846;DHT22;53889;50.084;8.646;2022-12-29T04:33:30;11.50;99.90
54846;DHT22;53889;50.084;8.646;2022-12-29T04:35:57;11.60;99.90
54846;DHT22;53889;50.084;8.646;2022-12-29T04:38:25;11.60;99.90
54846;DHT22;53889;50.084;8.646;2022-12-29T04:40:53;11.70;99.90
54846;DHT22;53889;50.084;8.646;2022-12-29T04:43:22;11.70;99.90
54846;DHT22;53889;50.084;8.646;2022-12-29T04:46:15;11.90;99.90
54846;DHT22;53889;50.084;8.646;2022-12-29T04:48:50;11.80;99.90
54846;DHT22;53889;50.084;8.646;2022-12-29T04:51:26;11.80;99.90
54846;DHT22;53889;50.084;8.646;2022-12-29T04:53:54;11.80;99.90
54846;DHT22;53889;50.084;8.646;2022-12-29T04:56:22;11.80;99.90
54846;DHT22;53889;50.084;8.646;2022-12-29T04:58:49;11.80;99.90
54846;DHT22;53889;50.084;8.646;2022-12-29T05:01:16;11.90;99.90
54846;DHT22;53889;50.084;8.646;2022-12-29T05:03:43;11.90;99.90
54846;DHT22;53889;50.084;8.646;2022-12-29T05:06:10;11.90;99.90
54846;DHT22;53889;50.084;8.646;2022-12-29T05:08:36;11.90;99.90
54846;DHT22;53889;50.084;8.646;2022-12-29T05:11:05;11.80;99.90
54846;DHT22;53889;50.084;8.646;2022-12-29T05:13:32;11.70;99.90
54846;DHT22;53889;50.084;8.646;2022-12-29T05:15:59;11.70;99.90
54846;DHT22;53889;50.084;8.646;2022-12-29T05:18:26;11.70;99.90
54846;DHT22;53889;50.084;8.646;2022-12-29T05:20:53;11.70;99.90
54846;DHT22;53889;50.084;8.646;2022-12-29T05:23:22;11.60;99.90
54846;DHT22;53889;50.084;8.646;2022-12-29T05:25:54;13.10;99.90
54846;DHT22;53889;50.084;8.646;2022-12-29T05:28:41;11.70;99.90
54846;DHT22;53889;50.084;8.646;2022-12-29T05:31:16;11.70;99.90
54846;DHT22;53889;50.084;8.646;2022-12-29T05:33:43;11.60;99.90
54846;DHT22;53889;50.084;8.646;2022-12-29T05:36:11;11.60;99.90
54846;DHT22;53889;50.084;8.646;2022-12-29T05:38:42;11.60;99.90
54846;DHT22;53889;50.084;8.646;2022-12-29T05:41:10;11.60;99.90
54846;DHT22;53889;50.084;8.646;2022-12-29T05:43:57;11.60;99.90
54846;DHT22;53889;50.084;8.646;2022-12-29T05:46:29;11.60;99.90
54846;DHT22;53889;50.084;8.646;2022-12-29T05:49:06;11.70;99.90
54846;DHT22;53889;50.084;8.646;2022-12-29T05:51:54;11.70;99.90
54846;DHT22;53889;50.084;8.646;2022-12-29T05:54:21;11.70;99.90
54846;DHT22;53889;50.084;8.646;2022-12-29T05:56:49;11.80;99.90
54846;DHT22;53889;50.084;8.646;2022-12-29T05:59:17;11.80;99.90
54846;DHT22;53889;50.084;8.646;2022-12-29T06:01:44;11.90;99.90
54846;DHT22;53889;50.084;8.646;2022-12-29T06:04:11;11.90;99.90
54846;DHT22;53889;50.084;8.646;2022-12-29T06:06:38;11.90;99.90
54846;DHT22;53889;50.084;8.646;2022-12-29T06:09:10;12.00;99.90
54846;DHT22;53889;50.084;8.646;2022-12-29T06:11:37;12.00;99.90
54846;DHT22;53889;50.084;8.646;2022-12-29T06:14:04;12.10;99.90
54846;DHT22;53889;50.084;8.646;2022-12-29T06:16:33;12.10;99.90
54846;DHT22;53889;50.084;8.646;2022-12-29T06:19:02;12.10;99.90
54846;DHT22;53889;50.084;8.646;2022-12-29T06:21:29;12.10;99.90
54846;DHT22;53889;50.084;8.646;2022-12-29T06:23:57;12.10;99.90
54846;DHT22;53889;50.084;8.646;2022-12-29T06:26:24;12.10;99.90
54846;DHT22;53889;50.084;8.646;2022-12-29T06:28:51;12.20;99.90
54846;DHT22;53889;50.084;8.646;2022-12-29T06:31:17;12.10;99.90
54846;DHT22;53889;50.084;8.646;2022-12-29T06:33:46;12.20;99.90
54846;DHT22;53889;50.084;8.646;2022-12-29T06:36:13;12.20;99.90
54846;DHT22;53889;50.084;8.646;2022-12-29T06:38:39;12.20;99.90
54846;DHT22;53889;50.084;8.646;2022-12-29T06:41:06;12.30;99.90
54846;DHT22;53889;50.084;8.646;2022-12-29T06:44:02;12.10;99.90
54846;DHT22;53889;50.084;8.646;2022-12-29T06:46:49;12.20;99.90
54846;DHT22;53889;50.084;8.646;2022-12-29T06:49:17;12.20;99.90
54846;DHT22;53889;50.084;8.646;2022-12-29T06:51:44;12.20;99.90
54846;DHT22;53889;50.084;8.646;2022-12-29T06:54:11;12.10;99.90
54846;DHT22;53889;50.084;8.646;2022-12-29T06:56:38;12.10;99.90
54846;DHT22;53889;50.084;8.646;2022-12-29T06:59:05;12.10;99.90
54846;DHT22;53889;50.084;8.646;2022-12-29T07:01:31;12.10;99.90
54846;DHT22;53889;50.084;8.646;2022-12-29T07:03:58;12.00;99.90
54846;DHT22;53889;50.084;8.646;2022-12-29T07:06:26;12.00;99.90
54846;DHT22;53889;50.084;8.646;2022-12-29T07:08:53;12.00;99.90
54846;DHT22;53889;50.084;8.646;2022-12-29T07:11:21;12.00;99.90
54846;DHT22;53889;50.084;8.646;2022-12-29T07:13:48;11.90;99.90
54846;DHT22;53889;50.084;8.646;2022-12-29T07:16:14;11.90;99.90
54846;DHT22;53889;50.084;8.646;2022-12-29T07:18:42;11.90;99.90
54846;DHT22;53889;50.084;8.646;2022-12-29T07:21:08;11.90;99.90
54846;DHT22;53889;50.084;8.646;2022-12-29T07:23:36;11.90;99.90
54846;DHT22;53889;50.084;8.646;2022-12-29T07:26:06;11.90;99.90
54846;DHT22;53889;50.084;8.646;2022-12-29T07:28:34;11.90;99.90
54846;DHT22;53889;50.084;8.646;2022-12-29T07:31:01;12.00;99.90
54846;DHT22;53889;50.084;8.646;2022-12-29T07:33:28;12.00;99.90
54846;DHT22;53889;50.084;8.646;2022-12-29T07:35:55;12.00;99.90
54846;DHT22;53889;50.084;8.646;2022-12-29T07:38:22;12.00;99.90
54846;DHT22;53889;50.084;8.646;2022-12-29T07:40:51;12.00;99.90
54846;DHT22;53889;50.084;8.646;2022-12-29T07:43:17;12.10;99.90
54846;DHT22;53889;50.084;8.646;2022-12-29T07:46:01;12.90;99.90
54846;DHT22;53889;50.084;8.646;2022-12-29T07:48:27;12.10;99.90
54846;DHT22;53889;50.084;8.646;2022-12-29T07:50:54;12.20;99.90
54846;DHT22;53889;50.084;8.646;2022-12-29T07:53:21;12.20;99.90
54846;DHT22;53889;50.084;8.646;2022-12-29T07:55:49;12.20;99.90
54846;DHT22;53889;50.084;8.646;2022-12-29T07:58:16;12.20;99.90
54846;DHT22;53889;50.084;8.646;2022-12-29T08:00:44;12.20;99.90
54846;DHT22;53889;50.084;8.646;2022-12-29T08:03:10;12.30;99.90
54846;DHT22;53889;50.084;8.646;2022-12-29T08:05:37;12.20;99.90
54846;DHT22;53889;50.084;8.646;2022-12-29T08:08:04;12.20;99.90
54846;DHT22;53889;50.084;8.646;2022-12-29T08:10:30;12.20;99.90
54846;DHT22;53889;50.084;8.646;2022-12-29T08:12:59;12.20;99.90
54846;DHT22;53889;50.084;8.646;2022-12-29T08:15:25;12.20;99.90
54846;DHT22;53889;50.084;8.646;2022-12-29T08:17:52;12.10;99.90
54846;DHT22;53889;50.084;8.646;2022-12-29T08:20:19;12.10;99.90
54846;DHT22;53889;50.084;8.646;2022-12-29T08:22:45;12.00;99.90
54846;DHT22;53889;50.084;8.646;2022-12-29T08:25:12;12.10;99.90
54846;DHT22;53889;50.084;8.646;2022-12-29T08:27:39;12.10;99.90
54846;DHT22;53889;50.084;8.646;2022-12-29T08:30:08;12.10;99.90
54846;DHT22;53889;50.084;8.646;2022-12-29T08:32:35;12.10;99.90
54846;DHT22;53889;50.084;8.646;2022-12-29T08:35:03;12.00;99.90
54846;DHT22;53889;50.084;8.646;2022-12-29T08:37:29;12.00;99.90
54846;DHT22;53889;50.084;8.646;2022-12-29T08:39:56;12.00;99.90
54846;DHT22;53889;50.084;8.646;2022-12-29T08:42:24;11.90;99.90
54846;DHT22;53889;50.084;8.646;2022-12-29T08:44:56;12.00;99.90
54846;DHT22;53889;50.084;8.646;2022-12-29T08:47:24;12.00;99.90
54846;DHT22;53889;50.084;8.646;2022-12-29T08:49:51;12.00;99.90
54846;DHT22;53889;50.084;8.646;2022-12-29T08:52:18;12.10;99.90
54846;DHT22;53889;50.084;8.646;2022-12-29T08:54:45;12.10;99.90
54846;DHT22;53889;50.084;8.646;2022-12-29T08:57:11;12.10;99.90
54846;DHT22;53889;50.084;8.646;2022-12-29T08:59:48;12.00;99.90
54846;DHT22;53889;50.084;8.646;2022-12-29T09:02:15;11.90;99.90
54846;DHT22;53889;50.084;8.646;2022-12-29T09:04:43;11.70;99.90
54846;DHT22;53889;50.084;8.646;2022-12-29T09:07:10;11.60;99.90
54846;DHT22;53889;50.084;8.646;2022-12-29T09:09:37;11.50;99.90
54846;DHT22;53889;50.084;8.646;2022-12-29T09:12:04;11.80;99.90
54846;DHT22;53889;50.084;8.646;2022-12-29T09:14:31;11.30;99.90
54846;DHT22;53889;50.084;8.646;2022-12-29T09:16:57;11.20;99.90
54846;DHT22;53889;50.084;8.646;2022-12-29T09:19:43;11.20;99.90
54846;DHT22;53889;50.084;8.646;2022-12-29T09:22:09;11.10;99.90
54846;DHT22;53889;50.084;8.646;2022-12-29T09:24:36;11.10;99.90
54846;DHT22;53889;50.084;8.646;2022-12-29T09:27:03;11.10;99.90
54846;DHT22;53889;50.084;8.646;2022-12-29T09:29:29;11.10;99.90
54846;DHT22;53889;50.084;8.646;2022-12-29T09:31:56;11.10;99.90
54846;DHT22;53889;50.084;8.646;2022-12-29T09:34:23;11.00;99.90
54846;DHT22;53889;50.084;8.646;2022-12-29T09:36:51;11.00;99.90
54846;DHT22;53889;50.084;8.646;2022-12-29T09:39:18;10.90;99.90
54846;DHT22;53889;50.084;8.646;2022-12-29T09:41:49;10.90;99.90
54846;DHT22;53889;50.084;8.646;2022-12-29T09:44:24;10.80;99.90
54846;DHT22;53889;50.084;8.646;2022-12-29T09:46:54;10.70;99.90
54846;DHT22;53889;50.084;8.646;2022-12-29T09:49:25;10.70;99.90
54846;DHT22;53889;50.084;8.646;2022-12-29T09:51:57;10.60;99.90
54846;DHT22;53889;50.084;8.646;2022-12-29T09:54:36;10.60;99.90
54846;DHT22;53889;50.084;8.646;2022-12-29T09:57:13;10.50;99.90
54846;DHT22;53889;50.084;8.646;2022-12-29T09:59:43;10.50;99.90
54846;DHT22;53889;50.084;8.646;2022-12-29T10:02:21;10.40;99.90
54846;DHT22;53889;50.084;8.646;2022-12-29T10:04:52;10.50;99.90
54846;DHT22;53889;50.084;8.646;2022-12-29T10:07:30;10.40;99.90
54846;DHT22;53889;50.084;8.646;2022-12-29T10:10:06;10.40;99.90
54846;DHT22;53889;50.084;8.646;2022-12-29T10:12:51;10.40;99.90
54846;DHT22;53889;50.084;8.646;2022-12-29T10:15:34;10.40;99.90
54846;DHT22;53889;50.084;8.646;2022-12-29T10:18:18;10.40;99.90
54846;DHT22;53889;50.084;8.646;2022-12-29T10:20:51;10.40;99.90
54846;DHT22;53889;50.084;8.646;2022-12-29T10:23:26;10.30;99.90
54846;DHT22;53889;50.084;8.646;2022-12-29T10:25:55;10.40;99.90
54846;DHT22;53889;50.084;8.646;2022-12-29T10:28:24;10.30;99.90
54846;DHT22;53889;50.084;8.646;2022-12-29T10:30:53;10.30;99.90
54846;DHT22;53889;50.084;8.646;2022-12-29T10:33:23;10.30;99.90
54846;DHT22;53889;50.084;8.646;2022-12-29T10:35:52;10.30;99.90
54846;DHT22;53889;50.084;8.646;2022-12-29T10:38:25;10.30;99.90
54846;DHT22;53889;50.084;8.646;2022-12-29T10:40:57;10.20;99.90
54846;DHT22;53889;50.084;8.646;2022-12-29T10:43:27;10.20;99.90
54846;DHT22;53889;50.084;8.646;2022-12-29T10:45:57;11.00;99.90
54846;DHT22;53889;50.084;8.646;2022-12-29T10:48:28;13.30;99.90
54846;DHT22;53889;50.084;8.646;2022-12-29T10:50:58;10.10;99.90
54846;DHT22;53889;50.084;8.646;2022-12-29T10:53:32;8.00;99.90
54846;DHT22;53889;50.084;8.646;2022-12-29T10:56:01;10.40;99.90
54846;DHT22;53889;50.084;8.646;2022-12-29T10:58:30;10.50;99.90
54846;DHT22;53889;50.084;8.646;2022-12-29T11:00:58;10.60;99.90
54846;DHT22;53889;50.084;8.646;2022-12-29T11:03:53;10.50;99.90
54846;DHT22;53889;50.084;8.646;2022-12-29T11:06:27;12.80;99.90
54846;DHT22;53889;50.084;8.646;2022-12-29T11:08:57;10.80;99.90
54846;DHT22;53889;50.084;8.646;2022-12-29T11:11:27;10.80;99.90
54846;DHT22;53889;50.084;8.646;2022-12-29T11:14:07;11.00;99.90
54846;DHT22;53889;50.084;8.646;2022-12-29T11:16:37;11.10;99.90
54846;DHT22;53889;50.084;8.646;2022-12-29T11:19:04;12.90;99.90
54846;DHT22;53889;50.084;8.646;2022-12-29T11:21:34;12.10;99.90
54846;DHT22;53889;50.084;8.646;2022-12-29T11:24:20;11.20;99.90
54846;DHT22;53889;50.084;8.646;2022-12-29T11:26:49;11.40;99.90
54846;DHT22;53889;50.084;8.646;2022-12-29T11:29:24;11.30;99.90
54846;DHT22;53889;50.084;8.646;2022-12-29T11:32:17;12.50;99.90
54846;DHT22;53889;50.084;8.646;2022-12-29T11:34:46;12.20;99.90
54846;DHT22;53889;50.084;8.646;2022-12-29T11:37:16;12.60;99.90
54846;DHT22;53889;50.084;8.646;2022-12-29T11:39:50;14.30;99.90
54846;DHT22;53889;50.084;8.646;2022-12-29T11:42:21;11.90;99.90
54846;DHT22;53889;50.084;8.646;2022-12-29T11:44:51;11.90;99.90
54846;DHT22;53889;50.084;8.646;2022-12-29T11:47:26;12.40;99.90
54846;DHT22;53889;50.084;8.646;2022-12-29T11:49:57;9.80;99.90
54846;DHT22;53889;50.084;8.646;2022-12-29T11:52:33;13.30;99.90
54846;DHT22;53889;50.084;8.646;2022-12-29T11:55:13;12.40;99.90
54846;DHT22;53889;50.084;8.646;2022-12-29T11:57:44;12.30;99.90
54846;DHT22;53889;50.084;8.646;2022-12-29T12:00:16;14.90;99.90
54846;DHT22;53889;50.084;8.646;2022-12-29T12:02:50;12.20;99.90
54846;DHT22;53889;50.084;8.646;2022-12-29T12:05:25;12.10;99.90
54846;DHT22;53889;50.084;8.646;2022-12-29T12:07:59;12.30;99.90
54846;DHT22;53889;50.084;8.646;2022-12-29T12:10:38;12.20;99.90
54846;DHT22;53889;50.084;8.646;2022-12-29T12:13:15;14.60;99.90
54846;DHT22;53889;50.084;8.646;2022-12-29T12:15:49;11.70;99.90
54846;DHT22;53889;50.084;8.646;2022-12-29T12:18:30;12.50;99.90
54846;DHT22;53889;50.084;8.646;2022-12-29T12:21:04;12.60;99.90
54846;DHT22;53889;50.084;8.646;2022-12-29T12:23:40;12.00;99.90
54846;DHT22;53889;50.084;8.646;2022-12-29T12:26:15;12.30;99.90
54846;DHT22;53889;50.084;8.646;2022-12-29T12:28:51;12.30;99.90
54846;DHT22;53889;50.084;8.646;2022-12-29T12:31:45;13.70;99.90
54846;DHT22;53889;50.084;8.646;2022-12-29T12:34:20;12.30;99.90
54846;DHT22;53889;50.084;8.646;2022-12-29T12:37:16;12.60;99.90
54846;DHT22;53889;50.084;8.646;2022-12-29T12:39:56;12.30;99.90
54846;DHT22;53889;50.084;8.646;2022-12-29T12:42:40;12.10;99.90
54846;DHT22;53889;50.084;8.646;2022-12-29T12:45:28;12.20;99.90
54846;DHT22;53889;50.084;8.646;2022-12-29T12:48:07;12.10;99.90
54846;DHT22;53889;50.084;8.646;2022-12-29T12:50:47;12.10;99.90
54846;DHT22;53889;50.084;8.646;2022-12-29T12:53:26;12.20;99.90
54846;DHT22;53889;50.084;8.646;2022-12-29T12:56:08;12.10;99.90
54846;DHT22;53889;50.084;8.646;2022-12-29T12:58:47;12.10;99.90
54846;DHT22;53889;50.084;8.646;2022-12-29T13:01:37;12.00;99.90
54846;DHT22;53889;50.084;8.646;2022-12-29T13:04:39;11.90;99.90
54846;DHT22;53889;50.084;8.646;2022-12-29T13:07:17;12.00;99.90
54846;DHT22;53889;50.084;8.646;2022-12-29T13:10:05;12.00;99.90
54846;DHT22;53889;50.084;8.646;2022-12-29T13:12:40;11.90;99.90
54846;DHT22;53889;50.084;8.646;2022-12-29T13:15:19;12.30;99.90
54846;DHT22;53889;50.084;8.646;2022-12-29T13:17:55;11.90;99.90
54846;DHT22;53889;50.084;8.646;2022-12-29T13:20:30;12.70;99.90
54846;DHT22;53889;50.084;8.646;2022-12-29T13:23:05;12.10;99.90
54846;DHT22;53889;50.084;8.646;2022-12-29T13:25:39;12.50;99.90
54846;DHT22;53889;50.084;8.646;2022-12-29T13:28:12;13.10;99.90
54846;DHT22;53889;50.084;8.646;2022-12-29T13:30:50;13.30;99.90
54846;DHT22;53889;50.084;8.646;2022-12-29T13:33:24;13.40;99.90
54846;DHT22;53889;50.084;8.646;2022-12-29T13:35:59;13.60;99.90
54846;DHT22;53889;50.084;8.646;2022-12-29T13:38:32;13.40;99.90
54846;DHT22;53889;50.084;8.646;2022-12-29T13:41:03;13.10;99.90
54846;DHT22;53889;50.084;8.646;2022-12-29T13:43:33;12.80;99.90
54846;DHT22;53889;50.084;8.646;2022-12-29T13:46:06;12.60;99.90
54846;DHT22;53889;50.084;8.646;2022-12-29T13:48:41;13.10;99.90
54846;DHT22;53889;50.084;8.646;2022-12-29T13:51:10;12.40;99.90
54846;DHT22;53889;50.084;8.646;2022-12-29T13:53:45;12.40;99.90
54846;DHT22;53889;50.084;8.646;2022-12-29T13:56:17;12.30;99.90
54846;DHT22;53889;50.084;8.646;2022-12-29T13:58:52;12.30;99.90
54846;DHT22;53889;50.084;8.646;2022-12-29T14:01:27;12.30;99.90
54846;DHT22;53889;50.084;8.646;2022-12-29T14:03:56;12.30;99.90
54846;DHT22;53889;50.084;8.646;2022-12-29T14:06:24;12.30;99.90
54846;DHT22;53889;50.084;8.646;2022-12-29T14:08:54;12.20;99.90
54846;DHT22;53889;50.084;8.646;2022-12-29T14:11:23;12.20;99.90
54846;DHT22;53889;50.084;8.646;2022-12-29T14:13:51;12.30;99.90
54846;DHT22;53889;50.084;8.646;2022-12-29T14:16:28;12.30;99.90
54846;DHT22;53889;50.084;8.646;2022-12-29T14:18:56;10.90;99.90
54846;DHT22;53889;50.084;8.646;2022-12-29T14:21:25;12.30;99.90
54846;DHT22;53889;50.084;8.646;2022-12-29T14:27:00;12.20;99.90
54846;DHT22;53889;50.084;8.646;2022-12-29T14:29:44;12.10;99.90
54846;DHT22;53889;50.084;8.646;2022-12-29T14:32:38;12.10;99.90
54846;DHT22;53889;50.084;8.646;2022-12-29T14:35:36;12.10;99.90
54846;DHT22;53889;50.084;8.646;2022-12-29T14:38:23;12.10;99.90
54846;DHT22;53889;50.084;8.646;2022-12-29T14:40:50;12.00;99.90
54846;DHT22;53889;50.084;8.646;2022-12-29T14:43:24;11.90;99.90
54846;DHT22;53889;50.084;8.646;2022-12-29T14:45:55;11.90;99.90
54846;DHT22;53889;50.084;8.646;2022-12-29T14:48:35;11.90;99.90
54846;DHT22;53889;50.084;8.646;2022-12-29T14:51:17;11.90;99.90
54846;DHT22;53889;50.084;8.646;2022-12-29T14:53:46;12.00;99.90
54846;DHT22;53889;50.084;8.646;2022-12-29T14:56:15;11.90;99.90
54846;DHT22;53889;50.084;8.646;2022-12-29T14:58:49;11.90;99.90
54846;DHT22;53889;50.084;8.646;2022-12-29T15:01:23;12.00;99.90
54846;DHT22;53889;50.084;8.646;2022-12-29T15:03:54;11.90;99.90
54846;DHT22;53889;50.084;8.646;2022-12-29T15:06:25;12.00;99.90
54846;DHT22;53889;50.084;8.646;2022-12-29T15:08:58;11.90;99.90
54846;DHT22;53889;50.084;8.646;2022-12-29T15:11:41;11.90;99.90
54846;DHT22;53889;50.084;8.646;2022-12-29T15:14:30;11.80;99.90
54846;DHT22;53889;50.084;8.646;2022-12-29T15:16:58;11.70;99.90
54846;DHT22;53889;50.084;8.646;2022-12-29T15:19:27;11.60;99.90
54846;DHT22;53889;50.084;8.646;2022-12-29T15:21:55;11.60;99.90
54846;DHT22;53889;50.084;8.646;2022-12-29T15:24:23;11.60;99.90
54846;DHT22;53889;50.084;8.646;2022-12-29T15:26:53;11.40;99.90
54846;DHT22;53889;50.084;8.646;2022-12-29T15:29:33;11.40;99.90
54846;DHT22;53889;50.084;8.646;2022-12-29T15:32:09;11.40;99.90
54846;DHT22;53889;50.084;8.646;2022-12-29T15:34:39;11.30;99.90
54846;DHT22;53889;50.084;8.646;2022-12-29T15:37:06;11.30;99.90
54846;DHT22;53889;50.084;8.646;2022-12-29T15:39:34;11.30;99.90
54846;DHT22;53889;50.084;8.646;2022-12-29T15:42:05;11.30;99.90
54846;DHT22;53889;50.084;8.646;2022-12-29T15:44:39;11.20;99.90
54846;DHT22;53889;50.084;8.646;2022-12-29T15:47:11;11.20;99.90
54846;DHT22;53889;50.084;8.646;2022-12-29T15:49:41;11.10;99.90
54846;DHT22;53889;50.084;8.646;2022-12-29T15:52:10;11.10;99.90
54846;DHT22;53889;50.084;8.646;2022-12-29T15:54:37;11.10;99.90
54846;DHT22;53889;50.084;8.646;2022-12-29T15:57:19;11.10;99.90
54846;DHT22;53889;50.084;8.646;2022-12-29T15:59:47;11.10;99.90
54846;DHT22;53889;50.084;8.646;2022-12-29T16:02:14;11.10;99.90
54846;DHT22;53889;50.084;8.646;2022-12-29T16:04:43;11.10;99.90
54846;DHT22;53889;50.084;8.646;2022-12-29T16:07:24;11.10;99.90
54846;DHT22;53889;50.084;8.646;2022-12-29T16:09:54;11.10;99.90